createdAt,value
2022-10-11T00:00:06.437Z,14.40
2022-10-11T00:02:34.297Z,14.40
2022-10-11T00:05:01.022Z,14.40
2022-10-11T00:07:27.735Z,14.60
2022-10-11T00:09:54.562Z,14.30
2022-10-11T00:12:21.435Z,14.30
2022-10-11T00:14:48.186Z,14.30
2022-10-11T00:17:14.932Z,14.50
2022-10-11T00:19:41.789Z,15.20
2022-10-11T00:22:08.532Z,15.20
2022-10-11T00:24:35.391Z,14.70
2022-10-11T00:27:02.116Z,15.00
2022-10-11T00:29:28.963Z,14.70
2022-10-11T00:31:56.717Z,14.80
2022-10-11T00:34:23.430Z,14.10
2022-10-11T00:36:50.259Z,14.10
2022-10-11T00:39:17.010Z,14.00
2022-10-11T00:41:43.857Z,14.00
2022-10-11T00:44:17.892Z,13.90
2022-10-11T00:47:00.908Z,13.80
2022-10-11T00:49:34.223Z,13.80
2022-10-11T00:52:06.302Z,13.80
2022-10-11T00:54:37.272Z,13.70
2022-10-11T00:57:07.948Z,13.70
2022-10-11T00:59:43.444Z,13.70
2022-10-11T01:02:11.249Z,13.70
2022-10-11T01:04:38.299Z,13.70
2022-10-11T01:07:05.200Z,13.70
2022-10-11T01:09:32.171Z,13.70
2022-10-11T01:12:02.509Z,14.10
2022-10-11T01:14:55.513Z,13.50
2022-10-11T01:17:54.778Z,13.60
2022-10-11T01:20:41.645Z,13.50
2022-10-11T01:23:08.704Z,13.50
2022-10-11T01:25:44.462Z,13.50
2022-10-11T01:28:33.798Z,13.50
2022-10-11T01:31:10.310Z,13.50
2022-10-11T01:33:51.465Z,13.40
2022-10-11T01:36:33.264Z,13.40
2022-10-11T01:39:11.945Z,13.40
2022-10-11T01:41:47.269Z,13.40
2022-10-11T01:44:14.568Z,13.70
2022-10-11T01:46:42.129Z,13.40
2022-10-11T01:49:09.178Z,13.40
2022-10-11T01:51:53.101Z,13.40
2022-10-11T01:54:44.334Z,13.40
2022-10-11T01:57:42.842Z,13.40
2022-10-11T02:00:16.533Z,13.30
2022-10-11T02:03:05.080Z,13.30
2022-10-11T02:06:01.239Z,13.30
2022-10-11T02:08:49.983Z,13.20
2022-10-11T02:11:31.431Z,13.10
2022-10-11T02:14:11.795Z,13.10
2022-10-11T02:17:07.424Z,12.90
2022-10-11T02:19:45.689Z,12.90
2022-10-11T02:22:39.398Z,12.80
2022-10-11T02:25:11.145Z,12.80
2022-10-11T02:27:40.530Z,12.70
2022-10-11T02:30:09.143Z,12.60
2022-10-11T02:32:40.662Z,12.60
2022-10-11T02:35:09.575Z,12.70
2022-10-11T02:37:56.536Z,12.50
2022-10-11T02:40:29.497Z,12.30
2022-10-11T02:43:05.570Z,12.30
2022-10-11T02:45:41.388Z,12.20
2022-10-11T02:48:10.990Z,12.10
2022-10-11T02:50:39.684Z,12.10
2022-10-11T02:53:07.254Z,13.10
2022-10-11T02:55:34.767Z,13.30
2022-10-11T02:58:05.245Z,11.90
2022-10-11T03:00:32.065Z,11.60
2022-10-11T03:02:58.880Z,10.90
2022-10-11T03:05:25.829Z,11.80
2022-10-11T03:07:58.575Z,11.70
2022-10-11T03:10:25.491Z,12.20
2022-10-11T03:12:53.038Z,11.70
2022-10-11T03:15:19.875Z,11.60
2022-10-11T03:17:49.925Z,12.80
2022-10-11T03:20:21.988Z,11.60
2022-10-11T03:22:48.912Z,11.70
2022-10-11T03:25:15.904Z,12.00
2022-10-11T03:27:42.956Z,11.50
2022-10-11T03:30:13.294Z,11.50
2022-10-11T03:32:42.000Z,11.50
2022-10-11T03:35:09.029Z,11.70
2022-10-11T03:37:35.957Z,11.50
2022-10-11T03:40:03.459Z,11.40
2022-10-11T03:42:30.255Z,11.40
2022-10-11T03:44:57.536Z,12.40
2022-10-11T03:47:25.077Z,11.40
2022-10-11T03:49:52.010Z,12.30
2022-10-11T03:52:32.169Z,12.20
2022-10-11T03:54:58.966Z,11.10
2022-10-11T03:57:35.803Z,12.20
2022-10-11T04:00:02.647Z,11.20
2022-10-11T04:02:29.608Z,11.20
2022-10-11T04:04:56.560Z,11.70
2022-10-11T04:07:23.345Z,11.10
2022-10-11T04:09:53.490Z,11.10
2022-10-11T04:12:20.482Z,11.20
2022-10-11T04:14:47.268Z,11.60
2022-10-11T04:17:14.047Z,10.90
2022-10-11T04:19:40.800Z,11.90
2022-10-11T04:22:23.930Z,12.10
2022-10-11T04:24:50.986Z,11.00
2022-10-11T04:27:17.749Z,11.50
2022-10-11T04:29:45.200Z,10.90
2022-10-11T04:32:12.569Z,10.90
2022-10-11T04:34:39.941Z,11.00
2022-10-11T04:37:06.882Z,11.20
2022-10-11T04:39:33.628Z,11.90
2022-10-11T04:42:00.395Z,11.80
2022-10-11T04:44:27.156Z,11.90
2022-10-11T04:46:54.023Z,10.70
2022-10-11T04:49:20.858Z,12.00
2022-10-11T04:51:47.835Z,10.80
2022-10-11T04:54:14.998Z,10.90
2022-10-11T04:56:43.110Z,10.90
2022-10-11T04:59:14.060Z,11.70
2022-10-11T05:01:41.197Z,11.60
2022-10-11T05:04:08.926Z,11.00
2022-10-11T05:06:36.233Z,10.00
2022-10-11T05:09:03.285Z,10.50
2022-10-11T05:11:30.481Z,10.50
2022-10-11T05:13:57.294Z,11.10
2022-10-11T05:16:24.141Z,10.70
2022-10-11T05:18:50.903Z,11.30
2022-10-11T05:21:19.929Z,9.40
2022-10-11T05:23:48.088Z,11.00
2022-10-11T05:26:15.471Z,10.00
2022-10-11T05:28:42.612Z,10.70
2022-10-11T05:31:09.744Z,11.10
2022-10-11T05:33:36.704Z,10.90
2022-10-11T05:36:07.735Z,10.20
2022-10-11T05:38:35.074Z,10.10
2022-10-11T05:41:03.107Z,10.20
2022-10-11T05:43:30.597Z,10.10
2022-10-11T05:45:57.610Z,10.10
2022-10-11T05:48:26.166Z,10.00
2022-10-11T05:50:53.532Z,10.10
2022-10-11T05:53:20.268Z,10.10
2022-10-11T05:55:46.994Z,10.10
2022-10-11T05:58:15.130Z,10.10
2022-10-11T06:00:42.149Z,10.10
2022-10-11T06:03:10.936Z,10.20
2022-10-11T06:05:37.808Z,10.20
2022-10-11T06:08:06.631Z,10.30
2022-10-11T06:10:33.435Z,10.20
2022-10-11T06:13:00.437Z,10.20
2022-10-11T06:15:27.622Z,10.70
2022-10-11T06:17:54.567Z,10.50
2022-10-11T06:20:21.329Z,10.20
2022-10-11T06:22:48.153Z,10.50
2022-10-11T06:25:15.113Z,10.30
2022-10-11T06:27:41.936Z,10.30
2022-10-11T06:30:09.239Z,10.40
2022-10-11T06:32:35.980Z,10.30
2022-10-11T06:35:03.505Z,10.60
2022-10-11T06:37:30.569Z,10.30
2022-10-11T06:39:57.321Z,10.70
2022-10-11T06:42:24.190Z,10.30
2022-10-11T06:44:50.886Z,11.70
2022-10-11T06:47:17.682Z,11.30
2022-10-11T06:49:44.416Z,11.70
2022-10-11T06:52:11.190Z,11.60
2022-10-11T06:54:42.488Z,10.10
2022-10-11T06:57:11.454Z,10.40
2022-10-11T06:59:38.212Z,10.40
2022-10-11T07:02:04.936Z,10.30
2022-10-11T07:04:33.943Z,10.60
2022-10-11T07:07:00.948Z,11.10
2022-10-11T07:09:27.817Z,11.30
2022-10-11T07:11:54.773Z,11.80
2022-10-11T07:14:21.501Z,10.70
2022-10-11T07:16:48.506Z,10.70
2022-10-11T07:19:15.702Z,10.40
2022-10-11T07:21:42.606Z,10.40
2022-10-11T07:24:09.516Z,11.60
2022-10-11T07:26:38.890Z,11.50
2022-10-11T07:29:08.157Z,10.60
2022-10-11T07:31:36.539Z,10.50
2022-10-11T07:34:03.432Z,11.00
2022-10-11T07:36:30.550Z,10.70
2022-10-11T07:38:57.464Z,10.80
2022-10-11T07:41:24.370Z,11.20
2022-10-11T07:43:51.536Z,10.40
2022-10-11T07:46:18.935Z,10.80
2022-10-11T07:48:45.757Z,12.00
2022-10-11T07:51:18.403Z,12.30
2022-10-11T07:53:47.913Z,12.20
2022-10-11T07:56:20.503Z,12.20
2022-10-11T07:59:03.506Z,11.10
2022-10-11T08:01:31.430Z,11.20
2022-10-11T08:03:58.780Z,11.60
2022-10-11T08:06:31.558Z,11.30
2022-10-11T08:09:00.329Z,11.30
2022-10-11T08:11:36.204Z,12.00
2022-10-11T08:14:08.640Z,11.80
2022-10-11T08:16:39.462Z,11.50
2022-10-11T08:19:07.418Z,11.30
2022-10-11T08:21:34.803Z,11.30
2022-10-11T08:24:03.435Z,11.20
2022-10-11T08:26:30.859Z,11.80
2022-10-11T08:28:58.977Z,11.80
2022-10-11T08:31:25.845Z,12.00
2022-10-11T08:33:52.812Z,12.80
2022-10-11T08:36:19.630Z,11.70
2022-10-11T08:38:46.516Z,12.30
2022-10-11T08:41:28.388Z,12.10
2022-10-11T08:44:13.636Z,12.30
2022-10-11T08:46:45.526Z,11.90
2022-10-11T08:49:15.435Z,11.70
2022-10-11T08:52:00.135Z,11.90
2022-10-11T08:54:51.643Z,11.80
2022-10-11T08:57:22.740Z,11.70
2022-10-11T08:59:57.019Z,11.60
2022-10-11T09:03:02.785Z,11.60
2022-10-11T09:05:25.676Z,11.70
2022-10-11T09:08:22.526Z,11.70
2022-10-11T09:11:10.627Z,12.00
2022-10-11T09:13:58.283Z,11.90
2022-10-11T09:16:30.670Z,12.10
2022-10-11T09:19:15.695Z,12.20
2022-10-11T09:21:57.886Z,12.40
2022-10-11T09:25:15.277Z,12.30
2022-10-11T09:28:02.676Z,12.30
2022-10-11T09:30:30.657Z,12.40
2022-10-11T09:33:09.513Z,11.90
2022-10-11T09:35:44.324Z,12.00
2022-10-11T09:38:38.908Z,12.00
2022-10-11T09:41:27.227Z,12.10
2022-10-11T09:43:54.200Z,12.40
2022-10-11T09:46:30.914Z,12.50
2022-10-11T09:48:58.263Z,12.10
2022-10-11T09:51:32.391Z,13.10
2022-10-11T09:54:02.188Z,12.80
2022-10-11T09:56:31.575Z,12.60
2022-10-11T09:59:20.340Z,13.00
2022-10-11T10:01:47.288Z,12.70
2022-10-11T10:04:20.385Z,12.60
2022-10-11T10:06:47.280Z,13.50
2022-10-11T10:09:30.410Z,13.50
2022-10-11T10:11:58.075Z,12.70
2022-10-11T10:14:29.379Z,12.90
2022-10-11T10:17:14.285Z,12.90
2022-10-11T10:20:00.708Z,13.00
2022-10-11T10:22:34.595Z,12.90
2022-10-11T10:25:07.881Z,13.00
2022-10-11T10:27:34.852Z,12.90
2022-10-11T10:30:04.678Z,13.60
2022-10-11T10:32:48.733Z,13.50
2022-10-11T10:35:27.723Z,13.00
2022-10-11T10:38:09.203Z,13.10
2022-10-11T10:40:47.982Z,13.40
2022-10-11T10:43:18.247Z,13.70
2022-10-11T10:46:09.339Z,14.00
2022-10-11T10:49:52.040Z,13.80
2022-10-11T10:52:22.818Z,13.50
2022-10-11T10:55:14.529Z,13.70
2022-10-11T10:58:19.128Z,14.30
2022-10-11T11:00:49.235Z,13.70
2022-10-11T11:03:39.587Z,13.90
2022-10-11T11:06:09.949Z,13.70
2022-10-11T11:08:55.626Z,13.50
2022-10-11T11:11:39.049Z,13.50
2022-10-11T11:14:41.663Z,13.60
2022-10-11T11:17:20.541Z,13.80
2022-10-11T11:19:59.690Z,13.60
2022-10-11T11:22:54.414Z,13.90
2022-10-11T11:25:24.091Z,13.90
2022-10-11T11:27:56.491Z,14.20
2022-10-11T11:30:49.042Z,14.30
2022-10-11T11:33:31.234Z,14.20
2022-10-11T11:36:03.855Z,14.20
2022-10-11T11:38:43.613Z,14.70
2022-10-11T11:41:22.889Z,14.00
2022-10-11T11:44:13.179Z,14.20
2022-10-11T11:46:51.345Z,14.40
2022-10-11T11:49:24.012Z,14.30
2022-10-11T11:51:51.725Z,14.40
2022-10-11T11:55:00.178Z,14.20
2022-10-11T11:57:39.635Z,14.60
2022-10-11T12:00:15.414Z,15.50
2022-10-11T12:02:45.407Z,13.90
2022-10-11T12:05:16.019Z,15.60
2022-10-11T12:07:49.014Z,15.30
2022-10-11T12:10:28.136Z,14.50
2022-10-11T12:13:29.708Z,14.80
2022-10-11T12:16:12.349Z,14.70
2022-10-11T12:19:03.658Z,14.70
2022-10-11T12:21:39.892Z,14.80
2022-10-11T12:24:24.847Z,14.70
2022-10-11T12:26:56.814Z,14.50
2022-10-11T12:29:28.450Z,14.80
2022-10-11T12:31:58.979Z,15.00
2022-10-11T12:34:36.942Z,14.80
2022-10-11T12:37:32.881Z,14.70
2022-10-11T12:40:00.220Z,14.70
2022-10-11T12:42:35.427Z,15.50
2022-10-11T12:45:11.192Z,14.90
2022-10-11T12:47:47.736Z,14.90
2022-10-11T12:50:22.879Z,15.20
2022-10-11T12:53:27.303Z,15.30
2022-10-11T12:56:12.268Z,15.10
2022-10-11T12:58:45.182Z,14.90
2022-10-11T13:01:24.421Z,15.10
2022-10-11T13:03:59.189Z,15.30
2022-10-11T13:06:36.256Z,15.30
2022-10-11T13:09:27.483Z,15.10
2022-10-11T13:12:05.152Z,15.20
2022-10-11T13:14:37.266Z,15.20
2022-10-11T13:17:06.450Z,15.10
2022-10-11T13:19:36.750Z,15.40
2022-10-11T13:22:15.015Z,16.10
2022-10-11T13:24:42.716Z,15.60
2022-10-11T13:27:19.432Z,15.40
2022-10-11T13:29:47.919Z,15.30
2022-10-11T13:32:22.015Z,15.50
2022-10-11T13:34:52.664Z,15.30
2022-10-11T13:37:22.594Z,15.30
2022-10-11T13:39:52.301Z,15.20
2022-10-11T13:42:23.507Z,15.30
2022-10-11T13:44:50.386Z,15.30
2022-10-11T13:47:20.412Z,15.30
2022-10-11T13:50:00.161Z,15.40
2022-10-11T13:52:27.375Z,15.20
2022-10-11T13:55:04.581Z,15.00
2022-10-11T13:57:31.318Z,15.00
2022-10-11T13:59:58.163Z,15.20
2022-10-11T14:02:33.436Z,15.20
2022-10-11T14:05:00.278Z,15.20
2022-10-11T14:07:37.371Z,15.10
2022-10-11T14:10:07.920Z,15.20
2022-10-11T14:12:43.196Z,15.30
2022-10-11T14:15:26.983Z,15.50
2022-10-11T14:17:54.100Z,15.50
2022-10-11T14:20:33.505Z,15.30
2022-10-11T14:23:00.281Z,15.30
2022-10-11T14:25:27.170Z,15.30
2022-10-11T14:27:55.367Z,15.10
2022-10-11T14:30:26.547Z,15.20
2022-10-11T14:32:56.350Z,15.10
2022-10-11T14:35:26.133Z,15.40
2022-10-11T14:37:53.755Z,15.70
2022-10-11T14:40:23.815Z,15.40
2022-10-11T14:42:50.764Z,15.10
2022-10-11T14:45:18.282Z,15.10
2022-10-11T14:47:45.390Z,14.90
2022-10-11T14:50:26.469Z,15.80
2022-10-11T14:52:53.747Z,15.10
2022-10-11T14:55:20.634Z,15.10
2022-10-11T14:57:47.694Z,14.70
2022-10-11T15:00:24.356Z,14.90
2022-10-11T15:02:52.872Z,14.80
2022-10-11T15:05:21.322Z,14.80
2022-10-11T15:07:48.855Z,14.30
2022-10-11T15:10:39.935Z,15.60
2022-10-11T15:13:11.569Z,14.70
2022-10-11T15:15:41.647Z,14.70
2022-10-11T15:18:12.569Z,15.20
2022-10-11T15:20:41.828Z,14.60
2022-10-11T15:23:10.570Z,14.60
2022-10-11T15:25:39.471Z,14.70
2022-10-11T15:28:08.101Z,14.70
2022-10-11T15:30:41.567Z,14.50
2022-10-11T15:33:09.286Z,14.40
2022-10-11T15:35:36.186Z,14.90
2022-10-11T15:38:02.939Z,14.50
2022-10-11T15:40:36.965Z,15.00
2022-10-11T15:43:04.591Z,14.30
2022-10-11T15:45:31.626Z,15.40
2022-10-11T15:47:59.229Z,14.30
2022-10-11T15:50:36.757Z,14.80
2022-10-11T15:53:11.077Z,14.20
2022-10-11T15:55:49.948Z,14.30
2022-10-11T15:58:27.901Z,14.20
2022-10-11T16:00:57.386Z,13.90
2022-10-11T16:03:29.758Z,14.40
2022-10-11T16:06:01.149Z,13.80
2022-10-11T16:08:31.524Z,14.20
2022-10-11T16:10:59.583Z,13.70
2022-10-11T16:13:26.411Z,13.70
2022-10-11T16:15:53.169Z,13.80
2022-10-11T16:18:22.251Z,14.20
2022-10-11T16:20:51.947Z,13.70
2022-10-11T16:23:20.685Z,13.80
2022-10-11T16:25:56.840Z,13.50
2022-10-11T16:28:23.773Z,14.10
2022-10-11T16:30:50.702Z,13.90
2022-10-11T16:33:17.454Z,14.30
2022-10-11T16:35:44.454Z,13.30
2022-10-11T16:38:11.604Z,13.20
2022-10-11T16:40:40.030Z,13.00
2022-10-11T16:43:08.127Z,12.90
2022-10-11T16:45:36.122Z,12.80
2022-10-11T16:48:03.390Z,12.70
2022-10-11T16:50:33.318Z,12.70
2022-10-11T16:53:02.364Z,12.40
2022-10-11T16:56:13.247Z,12.80
2022-10-11T16:59:12.619Z,12.90
2022-10-11T17:01:39.960Z,12.40
